EGUW

RAF Wattisham

Airport
ICAO code
EGUW
Summary
ICAO Region
EUR
ICAO Territory
Location

Wattisham, Suffolk, England

Serving
Wattisham
Elevation
284 ft
Coordinates
52° 7' 38" N , 0° 57' 23" E
Metar
EGUW 270920Z 26003KT 9999 BKN024 05/03 Q1020 BECMG SCT025 RMK WHT BECMG BLU

Royal Air Force Station Wattisham is a former Royal Air Force station located in East Anglia just outside the village of Wattisham, south of Stowmarket in Suffolk, England. During the Cold War it was a major front-line air force base before closing in 1993 and is now operated by the British Army as Wattisham Airfield.

Runways

Designator Length Width Surface Rops
5/23 2424 46 ASP No/No

Airport map

Aerial View

SKYbrary Partners:

Safety knowledge contributed by: